createdAt,value
2018-05-16T00:00:31.883Z,14.92
2018-05-16T00:01:59.569Z,14.92
2018-05-16T00:03:27.166Z,14.90
2018-05-16T00:04:54.639Z,14.88
2018-05-16T00:06:22.942Z,14.83
2018-05-16T00:07:49.441Z,14.80
2018-05-16T00:09:17.838Z,14.78
2018-05-16T00:10:44.210Z,14.77
2018-05-16T00:12:11.564Z,14.75
2018-05-16T00:13:39.001Z,14.74
2018-05-16T00:15:06.497Z,14.71
2018-05-16T00:16:33.863Z,14.68
2018-05-16T00:18:01.225Z,14.66
2018-05-16T00:19:28.625Z,14.63
2018-05-16T00:20:55.959Z,14.60
2018-05-16T00:22:23.309Z,14.57
2018-05-16T00:23:50.569Z,14.53
2018-05-16T00:25:17.934Z,14.50
2018-05-16T00:26:45.346Z,14.50
2018-05-16T00:28:13.898Z,14.48
2018-05-16T00:29:40.136Z,14.45
2018-05-16T00:31:07.567Z,14.44
2018-05-16T00:32:34.886Z,14.42
2018-05-16T00:34:02.316Z,14.41
2018-05-16T00:35:29.731Z,14.41
2018-05-16T00:36:57.990Z,14.39
2018-05-16T00:38:25.261Z,14.38
2018-05-16T00:39:52.795Z,14.36
2018-05-16T00:41:19.092Z,14.35
2018-05-16T00:42:47.738Z,14.34
2018-05-16T00:44:13.975Z,14.35
2018-05-16T00:45:41.324Z,14.34
2018-05-16T00:47:09.773Z,14.33
2018-05-16T00:48:37.177Z,14.34
2018-05-16T00:50:03.479Z,14.33
2018-05-16T00:51:32.044Z,14.33
2018-05-16T00:52:59.312Z,14.33
2018-05-16T00:54:25.772Z,14.32
2018-05-16T00:55:54.023Z,14.32
2018-05-16T00:57:20.289Z,14.32
2018-05-16T00:58:48.719Z,14.31
2018-05-16T01:00:14.863Z,14.31
2018-05-16T01:01:42.219Z,14.33
2018-05-16T01:03:10.708Z,14.34
2018-05-16T01:04:38.090Z,14.34
2018-05-16T01:06:05.241Z,14.34
2018-05-16T01:07:31.669Z,14.35
2018-05-16T01:08:59.125Z,14.36
2018-05-16T01:10:26.623Z,14.37
2018-05-16T01:11:54.063Z,14.39
2018-05-16T01:13:22.365Z,14.40
2018-05-16T01:14:48.598Z,14.41
2018-05-16T01:16:16.899Z,14.41
2018-05-16T01:17:44.456Z,14.42
2018-05-16T01:19:11.722Z,14.42
2018-05-16T01:20:38.249Z,14.44
2018-05-16T01:22:06.427Z,14.45
2018-05-16T01:23:32.850Z,14.46
2018-05-16T01:25:00.190Z,14.47
2018-05-16T01:26:27.569Z,14.47
2018-05-16T01:27:54.933Z,14.46
2018-05-16T01:29:22.370Z,14.45
2018-05-16T01:30:49.684Z,14.44
2018-05-16T01:32:18.238Z,14.43
2018-05-16T01:33:44.607Z,14.42
2018-05-16T01:35:11.921Z,14.42
2018-05-16T01:36:39.326Z,14.42
2018-05-16T01:38:06.764Z,14.43
2018-05-16T01:39:35.160Z,14.44
2018-05-16T01:41:01.492Z,14.45
2018-05-16T01:42:28.933Z,14.47
2018-05-16T01:43:57.340Z,14.47
2018-05-16T01:45:23.587Z,14.47
2018-05-16T01:46:50.964Z,14.48
2018-05-16T01:48:19.564Z,14.48
2018-05-16T01:49:46.043Z,14.49
2018-05-16T01:51:14.587Z,14.50
2018-05-16T01:52:40.819Z,14.50
2018-05-16T01:54:09.114Z,14.50
2018-05-16T01:55:36.495Z,14.49
2018-05-16T01:57:02.719Z,14.49
2018-05-16T01:58:30.031Z,14.49
2018-05-16T01:59:58.592Z,14.49
2018-05-16T02:01:24.853Z,14.49
2018-05-16T02:02:52.222Z,14.50
2018-05-16T02:04:20.807Z,14.51
2018-05-16T02:05:47.039Z,14.51
2018-05-16T02:07:14.457Z,14.51
2018-05-16T02:08:41.910Z,14.51
2018-05-16T02:10:09.232Z,14.51
2018-05-16T02:11:36.689Z,14.53
2018-05-16T02:13:05.168Z,14.56
2018-05-16T02:14:32.334Z,14.59
2018-05-16T02:15:59.761Z,14.62
2018-05-16T02:17:26.058Z,14.63
2018-05-16T02:18:54.557Z,14.64
2018-05-16T02:20:22.061Z,14.64
2018-05-16T02:21:49.216Z,14.64
2018-05-16T02:23:16.707Z,14.64
2018-05-16T02:24:42.926Z,14.65
2018-05-16T02:26:11.400Z,14.66
2018-05-16T02:27:37.743Z,14.67
2018-05-16T02:29:05.031Z,14.69
2018-05-16T02:30:33.499Z,14.71
2018-05-16T02:31:59.554Z,14.73
2018-05-16T02:33:26.909Z,14.72
2018-05-16T02:34:54.403Z,14.70
2018-05-16T02:36:22.788Z,14.68
2018-05-16T02:37:50.099Z,14.67
2018-05-16T02:39:16.493Z,14.69
2018-05-16T02:40:45.035Z,14.70
2018-05-16T02:42:12.369Z,14.71
2018-05-16T02:43:38.637Z,14.71
2018-05-16T02:45:05.959Z,14.72
2018-05-16T02:46:36.401Z,14.71
2018-05-16T02:48:00.771Z,14.72
2018-05-16T02:49:28.019Z,14.72
2018-05-16T02:50:56.504Z,14.74
2018-05-16T02:52:22.756Z,14.75
2018-05-16T02:53:50.142Z,14.76
2018-05-16T02:55:18.463Z,14.77
2018-05-16T02:56:44.793Z,14.79
2018-05-16T02:58:12.178Z,14.80
2018-05-16T02:59:40.485Z,14.81
2018-05-16T03:01:07.913Z,14.82
2018-05-16T03:02:34.274Z,14.83
2018-05-16T03:04:01.635Z,14.83
2018-05-16T03:05:30.307Z,14.84
2018-05-16T03:06:56.452Z,14.84
2018-05-16T03:08:23.573Z,14.85
2018-05-16T03:09:51.035Z,14.84
2018-05-16T03:11:18.421Z,14.84
2018-05-16T03:12:46.850Z,14.83
2018-05-16T03:14:13.974Z,14.83
2018-05-16T03:15:40.513Z,14.82
2018-05-16T03:17:08.729Z,14.82
2018-05-16T03:18:36.169Z,14.82
2018-05-16T03:20:02.546Z,14.82
2018-05-16T03:21:29.846Z,14.80
2018-05-16T03:22:57.247Z,14.79
2018-05-16T03:24:24.722Z,14.78
2018-05-16T03:25:52.086Z,14.76
2018-05-16T03:27:19.570Z,14.75
2018-05-16T03:28:46.837Z,14.74
2018-05-16T03:30:14.214Z,14.73
2018-05-16T03:31:41.887Z,14.72
2018-05-16T03:33:09.166Z,14.70
2018-05-16T03:34:36.445Z,14.64
2018-05-16T03:36:04.742Z,14.57
2018-05-16T03:37:32.118Z,14.52
2018-05-16T03:38:58.406Z,14.50
2018-05-16T03:40:26.880Z,14.52
2018-05-16T03:41:54.168Z,14.54
2018-05-16T03:43:21.698Z,14.57
2018-05-16T03:44:48.887Z,14.59
2018-05-16T03:46:15.057Z,14.61
2018-05-16T03:47:43.438Z,14.63
2018-05-16T03:49:09.763Z,14.65
2018-05-16T03:50:37.293Z,14.62
2018-05-16T03:52:04.530Z,14.62
2018-05-16T03:53:31.743Z,14.61
2018-05-16T03:55:00.254Z,14.60
2018-05-16T03:56:26.529Z,14.62
2018-05-16T03:57:53.884Z,14.65
2018-05-16T03:59:21.308Z,14.66
2018-05-16T04:00:48.503Z,14.65
2018-05-16T04:02:17.186Z,14.66
2018-05-16T04:03:44.329Z,14.68
2018-05-16T04:05:11.472Z,14.70
2018-05-16T04:06:38.729Z,14.72
2018-05-16T04:08:05.054Z,14.73
2018-05-16T04:09:33.406Z,14.74
2018-05-16T04:10:59.624Z,14.75
2018-05-16T04:12:27.152Z,14.75
2018-05-16T04:13:55.469Z,14.74
2018-05-16T04:15:21.556Z,14.76
2018-05-16T04:16:49.595Z,14.78
2018-05-16T04:18:17.006Z,14.78
2018-05-16T04:19:43.364Z,14.77
2018-05-16T04:21:10.725Z,14.80
2018-05-16T04:22:38.160Z,14.83
2018-05-16T04:24:06.479Z,14.84
2018-05-16T04:25:33.931Z,14.89
2018-05-16T04:27:00.092Z,14.92
2018-05-16T04:28:27.557Z,14.94
2018-05-16T04:29:54.732Z,14.97
2018-05-16T04:31:22.255Z,14.99
2018-05-16T04:32:49.486Z,14.98
2018-05-16T04:34:17.979Z,14.98
2018-05-16T04:35:45.258Z,14.98
2018-05-16T04:37:11.393Z,15.00
2018-05-16T04:38:39.779Z,15.02
2018-05-16T04:40:07.108Z,15.04
2018-05-16T04:41:33.195Z,15.04
2018-05-16T04:43:01.563Z,15.01
2018-05-16T04:44:28.052Z,14.99
2018-05-16T04:45:56.459Z,14.97
2018-05-16T04:47:22.658Z,14.97
2018-05-16T04:48:50.118Z,14.97
2018-05-16T04:50:18.559Z,14.95
2018-05-16T04:51:44.788Z,14.94
2018-05-16T04:53:13.317Z,14.94
2018-05-16T04:54:39.525Z,14.95
2018-05-16T04:56:06.874Z,14.98
2018-05-16T04:57:34.355Z,14.97
2018-05-16T04:59:01.730Z,14.96
2018-05-16T05:00:29.001Z,14.96
2018-05-16T05:01:57.387Z,14.97
2018-05-16T05:03:23.799Z,14.98
2018-05-16T05:04:51.107Z,14.99
2018-05-16T05:06:18.519Z,15.02
2018-05-16T05:07:46.914Z,15.04
2018-05-16T05:09:13.217Z,15.07
2018-05-16T05:10:40.714Z,15.08
2018-05-16T05:12:08.379Z,15.09
2018-05-16T05:13:36.664Z,15.11
2018-05-16T05:15:02.776Z,15.13
2018-05-16T05:16:30.187Z,15.17
2018-05-16T05:17:58.420Z,15.17
2018-05-16T05:19:24.649Z,15.18
2018-05-16T05:20:52.065Z,15.21
2018-05-16T05:22:19.639Z,15.26
2018-05-16T05:23:46.849Z,15.30
2018-05-16T05:25:15.322Z,15.32
2018-05-16T05:26:41.649Z,15.34
2018-05-16T05:28:08.953Z,15.37
2018-05-16T05:29:37.499Z,15.37
2018-05-16T05:31:03.907Z,15.38
2018-05-16T05:32:32.188Z,15.41
2018-05-16T05:33:59.530Z,15.45
2018-05-16T05:35:26.935Z,15.47
2018-05-16T05:36:54.266Z,15.50
2018-05-16T05:38:21.518Z,15.54
2018-05-16T05:39:47.841Z,15.61
2018-05-16T05:41:15.320Z,15.71
2018-05-16T05:42:42.655Z,15.80
2018-05-16T05:44:11.242Z,15.92
2018-05-16T05:45:37.726Z,16.00
2018-05-16T05:47:06.350Z,16.07
2018-05-16T05:48:35.473Z,16.11
2018-05-16T05:50:00.642Z,16.15
2018-05-16T05:51:26.761Z,16.22
2018-05-16T05:52:54.306Z,16.25
2018-05-16T05:54:21.637Z,16.36
2018-05-16T05:55:49.162Z,16.45
2018-05-16T05:57:16.635Z,16.52
2018-05-16T05:58:45.160Z,16.56
2018-05-16T06:00:11.456Z,16.58
2018-05-16T06:01:39.753Z,16.67
2018-05-16T06:03:07.191Z,16.79
2018-05-16T06:04:33.657Z,16.86
2018-05-16T06:06:00.959Z,16.94
2018-05-16T06:07:29.585Z,17.06
2018-05-16T06:08:56.887Z,17.20
2018-05-16T06:10:24.355Z,17.25
2018-05-16T06:11:51.756Z,17.31
2018-05-16T06:13:17.985Z,17.37
2018-05-16T06:14:45.489Z,17.43
2018-05-16T06:16:14.127Z,17.46
2018-05-16T06:17:41.640Z,17.52
2018-05-16T06:19:08.006Z,17.54
2018-05-16T06:20:36.550Z,17.53
2018-05-16T06:22:02.931Z,17.52
2018-05-16T06:23:30.476Z,17.57
2018-05-16T06:24:57.899Z,17.57
2018-05-16T06:26:26.211Z,17.56
2018-05-16T06:27:52.654Z,17.49
2018-05-16T06:29:20.091Z,17.44
2018-05-16T06:30:47.713Z,17.47
2018-05-16T06:32:15.243Z,17.46
2018-05-16T06:33:43.715Z,17.42
2018-05-16T06:35:10.145Z,17.41
2018-05-16T06:36:37.695Z,17.44
2018-05-16T06:38:05.019Z,17.48
2018-05-16T06:39:32.727Z,17.56
2018-05-16T06:41:00.985Z,17.59
2018-05-16T06:42:27.229Z,17.69
2018-05-16T06:43:54.669Z,17.81
2018-05-16T06:45:22.339Z,17.96
2018-05-16T06:46:49.768Z,18.11
2018-05-16T06:48:17.124Z,18.21
2018-05-16T06:49:44.674Z,18.23
2018-05-16T06:51:12.145Z,18.24
2018-05-16T06:52:39.660Z,18.24
2018-05-16T06:54:07.024Z,18.29
2018-05-16T06:55:34.572Z,18.36
2018-05-16T06:57:01.785Z,18.38
2018-05-16T06:58:29.370Z,18.43
2018-05-16T06:59:56.898Z,18.46
2018-05-16T07:01:25.471Z,18.48
2018-05-16T07:02:51.920Z,18.49
2018-05-16T07:04:19.401Z,18.51
2018-05-16T07:05:46.739Z,18.54
2018-05-16T07:07:15.356Z,18.54
2018-05-16T07:08:41.772Z,18.50
2018-05-16T07:10:10.339Z,18.55
2018-05-16T07:11:37.660Z,18.65
2018-05-16T07:13:04.348Z,18.76
2018-05-16T07:14:32.710Z,18.88
2018-05-16T07:15:59.211Z,18.95
2018-05-16T07:17:26.755Z,19.00
2018-05-16T07:18:53.742Z,19.09
2018-05-16T07:20:22.258Z,19.12
2018-05-16T07:21:48.753Z,19.08
2018-05-16T07:23:17.145Z,19.04
2018-05-16T07:24:43.603Z,18.98
2018-05-16T07:26:12.412Z,18.91
2018-05-16T07:27:39.866Z,18.89
2018-05-16T07:29:06.357Z,18.87
2018-05-16T07:30:34.851Z,18.89
2018-05-16T07:32:02.130Z,18.88
2018-05-16T07:33:29.659Z,18.89
2018-05-16T07:34:56.887Z,18.89
2018-05-16T07:36:23.541Z,18.89
2018-05-16T07:37:51.053Z,18.88
2018-05-16T07:39:19.483Z,18.86
2018-05-16T07:40:46.871Z,18.87
2018-05-16T07:42:13.231Z,18.91
2018-05-16T07:43:40.519Z,18.96
2018-05-16T07:45:07.866Z,19.02
2018-05-16T07:46:35.434Z,19.06
2018-05-16T07:48:03.806Z,19.11
2018-05-16T07:49:30.046Z,19.15
2018-05-16T07:50:57.622Z,19.19
2018-05-16T07:52:25.983Z,19.26
2018-05-16T07:53:52.524Z,19.31
2018-05-16T07:55:19.872Z,19.35
2018-05-16T07:56:48.408Z,19.43
2018-05-16T07:58:14.992Z,19.52
2018-05-16T07:59:42.352Z,19.63
2018-05-16T08:01:11.102Z,19.70
2018-05-16T08:02:37.456Z,19.71
2018-05-16T08:04:05.021Z,19.78
2018-05-16T08:05:33.188Z,19.83
2018-05-16T08:06:59.821Z,19.87
2018-05-16T08:08:28.200Z,19.91
2018-05-16T08:09:54.675Z,19.92
2018-05-16T08:11:22.099Z,19.94
2018-05-16T08:12:49.597Z,19.97
2018-05-16T08:14:17.106Z,19.98
2018-05-16T08:15:44.624Z,20.02
2018-05-16T08:17:12.986Z,20.06
2018-05-16T08:18:39.444Z,20.13
2018-05-16T08:20:07.001Z,20.20
2018-05-16T08:21:35.567Z,20.24
2018-05-16T08:23:01.903Z,20.29
2018-05-16T08:24:30.306Z,20.36
2018-05-16T08:25:56.959Z,20.44
2018-05-16T08:27:24.289Z,20.46
2018-05-16T08:28:51.682Z,20.45
2018-05-16T08:30:19.246Z,20.39
2018-05-16T08:31:46.656Z,20.37
2018-05-16T08:33:14.319Z,20.41
2018-05-16T08:34:41.852Z,20.41
2018-05-16T08:36:09.315Z,20.45
2018-05-16T08:37:36.767Z,20.49
2018-05-16T08:39:04.278Z,20.53
2018-05-16T08:40:31.655Z,20.57
2018-05-16T08:41:59.130Z,20.61
2018-05-16T08:43:26.772Z,20.67
2018-05-16T08:44:54.276Z,20.74
2018-05-16T08:46:21.594Z,20.78
2018-05-16T08:47:49.139Z,20.86
2018-05-16T08:49:16.824Z,20.91
2018-05-16T08:50:45.212Z,20.94
2018-05-16T08:52:11.747Z,20.98
2018-05-16T08:53:39.359Z,21.01
2018-05-16T08:55:06.896Z,21.07
2018-05-16T08:56:34.495Z,21.13
2018-05-16T08:58:03.022Z,21.18
2018-05-16T08:59:29.571Z,21.21
2018-05-16T09:00:57.122Z,21.24
2018-05-16T09:02:24.724Z,21.27
2018-05-16T09:03:53.317Z,21.33
2018-05-16T09:05:19.693Z,21.40
2018-05-16T09:06:47.339Z,21.49
2018-05-16T09:08:14.900Z,21.56
2018-05-16T09:09:42.522Z,21.62
2018-05-16T09:11:11.031Z,21.67
2018-05-16T09:12:37.606Z,21.72
2018-05-16T09:14:04.840Z,21.72
2018-05-16T09:15:32.299Z,21.73
2018-05-16T09:17:00.891Z,21.76
2018-05-16T09:18:27.529Z,21.79
2018-05-16T09:19:56.052Z,21.80
2018-05-16T09:21:22.682Z,21.83
2018-05-16T09:22:51.182Z,21.77
2018-05-16T09:24:27.373Z,21.71
2018-05-16T09:25:54.623Z,21.69
2018-05-16T09:27:22.327Z,21.67
2018-05-16T09:28:50.922Z,21.65
2018-05-16T09:30:18.499Z,21.60
2018-05-16T09:31:45.002Z,21.55
2018-05-16T09:33:12.491Z,21.54
2018-05-16T09:34:40.041Z,21.61
2018-05-16T09:36:07.475Z,21.66
2018-05-16T09:37:34.927Z,21.69
2018-05-16T09:39:02.454Z,21.70
2018-05-16T09:40:29.753Z,21.69
2018-05-16T09:42:07.842Z,21.71
2018-05-16T09:43:34.098Z,21.68
2018-05-16T09:45:01.487Z,21.59
2018-05-16T09:46:30.131Z,21.56
2018-05-16T09:47:56.656Z,21.52
2018-05-16T09:49:24.032Z,21.53
2018-05-16T09:50:51.805Z,21.61
2018-05-16T09:52:19.277Z,21.76
2018-05-16T09:53:46.756Z,21.90
2018-05-16T09:55:14.148Z,22.00
2018-05-16T09:56:41.884Z,22.09
2018-05-16T09:58:10.451Z,22.07
2018-05-16T09:59:36.985Z,22.02
2018-05-16T10:01:04.554Z,22.04
2018-05-16T10:02:31.722Z,22.08
2018-05-16T10:03:59.377Z,22.11
2018-05-16T10:05:26.688Z,22.16
2018-05-16T10:06:54.237Z,22.16
2018-05-16T10:08:21.972Z,22.16
2018-05-16T10:09:49.428Z,22.23
2018-05-16T10:11:17.068Z,22.26
2018-05-16T10:12:45.629Z,22.23
2018-05-16T10:14:12.037Z,22.19
2018-05-16T10:15:39.637Z,22.16
2018-05-16T10:17:08.176Z,22.12
2018-05-16T10:18:34.645Z,22.13
2018-05-16T10:20:01.997Z,22.11
2018-05-16T10:21:29.386Z,22.09
2018-05-16T10:22:56.804Z,22.06
2018-05-16T10:24:25.265Z,22.01
2018-05-16T10:25:51.707Z,21.96
2018-05-16T10:27:19.340Z,21.91
2018-05-16T10:28:46.873Z,21.88
2018-05-16T10:30:14.284Z,21.91
2018-05-16T10:31:42.804Z,21.97
2018-05-16T10:33:09.182Z,22.03
2018-05-16T10:34:36.800Z,22.02
2018-05-16T10:36:04.514Z,21.99
2018-05-16T10:37:32.023Z,21.98
2018-05-16T10:39:00.653Z,21.98
2018-05-16T10:40:28.108Z,22.05
2018-05-16T10:41:54.591Z,22.20
2018-05-16T10:43:22.255Z,22.38
2018-05-16T10:44:49.918Z,22.50
2018-05-16T10:46:17.376Z,22.57
2018-05-16T10:47:44.733Z,22.55
2018-05-16T10:49:13.283Z,22.51
2018-05-16T10:50:39.673Z,22.53
2018-05-16T10:52:07.380Z,22.50
2018-05-16T10:53:34.740Z,22.46
2018-05-16T10:55:02.106Z,22.42
2018-05-16T10:56:29.465Z,22.39
2018-05-16T10:57:57.094Z,22.41
2018-05-16T10:59:24.712Z,22.42
2018-05-16T11:00:52.334Z,22.32
2018-05-16T11:02:20.789Z,22.28
2018-05-16T11:03:48.313Z,22.25
2018-05-16T11:05:14.762Z,22.25
2018-05-16T11:06:42.329Z,22.23
2018-05-16T11:08:09.892Z,22.17
2018-05-16T11:09:37.387Z,22.12
2018-05-16T11:11:04.805Z,22.06
2018-05-16T11:12:33.418Z,21.93
2018-05-16T11:14:00.727Z,21.78
2018-05-16T11:15:27.162Z,21.71
2018-05-16T11:16:54.684Z,21.66
2018-05-16T11:18:22.226Z,21.62
2018-05-16T11:19:50.630Z,21.64
2018-05-16T11:21:18.233Z,21.68
2018-05-16T11:22:44.730Z,21.68
2018-05-16T11:24:12.141Z,21.69
2018-05-16T11:25:39.637Z,21.70
2018-05-16T11:27:08.302Z,21.73
2018-05-16T11:28:35.699Z,21.71
2018-05-16T11:30:03.140Z,21.70
2018-05-16T11:31:30.874Z,21.67
2018-05-16T11:32:58.415Z,21.67
2018-05-16T11:34:24.730Z,21.68
2018-05-16T11:35:52.164Z,21.64
2018-05-16T11:37:19.710Z,21.62
2018-05-16T11:38:47.301Z,21.61
2018-05-16T11:40:15.836Z,21.58
2018-05-16T11:41:43.428Z,21.56
2018-05-16T11:43:10.771Z,21.52
2018-05-16T11:44:38.193Z,21.51
2018-05-16T11:46:05.479Z,21.47
2018-05-16T11:47:32.123Z,21.42
2018-05-16T11:49:00.608Z,21.31
2018-05-16T11:50:27.126Z,21.21
2018-05-16T11:51:54.703Z,21.13
2018-05-16T11:53:22.245Z,21.06
2018-05-16T11:54:49.772Z,20.98
2018-05-16T11:56:18.410Z,20.91
2018-05-16T11:57:45.694Z,20.87
2018-05-16T11:59:12.060Z,20.81
2018-05-16T12:00:39.480Z,20.77
2018-05-16T12:02:06.892Z,20.75
2018-05-16T12:03:34.157Z,20.70
2018-05-16T12:05:02.674Z,20.62
2018-05-16T12:06:29.151Z,20.57
2018-05-16T12:07:56.644Z,20.55
2018-05-16T12:09:24.254Z,20.53
2018-05-16T12:10:51.692Z,20.51
2018-05-16T12:12:19.214Z,20.52
2018-05-16T12:13:46.747Z,20.47
2018-05-16T12:15:14.084Z,20.40
2018-05-16T12:16:41.650Z,20.38
2018-05-16T12:18:10.158Z,20.32
2018-05-16T12:19:36.369Z,20.29
2018-05-16T12:21:03.786Z,20.30
2018-05-16T12:22:31.398Z,20.27
2018-05-16T12:23:58.800Z,20.27
2018-05-16T12:25:27.283Z,20.23
2018-05-16T12:26:53.835Z,20.21
2018-05-16T12:28:22.369Z,20.19
2018-05-16T12:29:48.744Z,20.20
2018-05-16T12:31:16.173Z,20.23
2018-05-16T12:32:43.537Z,20.25
2018-05-16T12:34:11.133Z,20.25
2018-05-16T12:35:39.722Z,20.23
2018-05-16T12:37:06.099Z,20.21
2018-05-16T12:38:34.634Z,20.21
2018-05-16T12:40:01.153Z,20.23
2018-05-16T12:41:29.520Z,20.23
2018-05-16T12:42:55.924Z,20.23
2018-05-16T12:44:23.464Z,20.23
2018-05-16T12:45:52.043Z,20.22
2018-05-16T12:47:18.419Z,20.21
2018-05-16T12:48:45.976Z,20.21
2018-05-16T12:50:13.516Z,20.23
2018-05-16T12:51:40.823Z,20.25
2018-05-16T12:53:09.438Z,20.27
2018-05-16T12:54:35.880Z,20.28
2018-05-16T12:56:03.097Z,20.30
2018-05-16T12:57:31.658Z,20.34
2018-05-16T12:58:58.241Z,20.37
2018-05-16T13:00:25.849Z,20.46
2018-05-16T13:01:54.290Z,20.64
2018-05-16T13:03:20.871Z,20.85
2018-05-16T13:04:48.508Z,20.95
2018-05-16T13:06:16.995Z,21.03
2018-05-16T13:07:44.465Z,21.18
2018-05-16T13:09:10.916Z,21.37
2018-05-16T13:10:38.524Z,21.51
2018-05-16T13:12:06.082Z,21.58
2018-05-16T13:13:33.228Z,21.59
2018-05-16T13:15:00.739Z,21.59
2018-05-16T13:16:29.364Z,21.58
2018-05-16T13:17:55.935Z,21.53
2018-05-16T13:19:23.362Z,21.52
2018-05-16T13:20:51.892Z,21.47
2018-05-16T13:22:18.168Z,21.44
2018-05-16T13:23:45.872Z,21.34
2018-05-16T13:25:13.373Z,21.27
2018-05-16T13:26:40.856Z,21.21
2018-05-16T13:28:08.305Z,21.18
2018-05-16T13:29:36.663Z,21.15
2018-05-16T13:31:03.145Z,21.10
2018-05-16T13:32:30.290Z,21.07
2018-05-16T13:33:57.955Z,21.07
2018-05-16T13:35:25.425Z,21.11
2018-05-16T13:36:53.020Z,21.13
2018-05-16T13:38:21.455Z,21.20
2018-05-16T13:39:47.933Z,21.29
2018-05-16T13:41:15.463Z,21.37
2018-05-16T13:42:42.989Z,21.48
2018-05-16T13:44:10.543Z,21.55
2018-05-16T13:45:38.007Z,21.56
2018-05-16T13:47:05.451Z,21.51
2018-05-16T13:48:32.846Z,21.45
2018-05-16T13:50:00.506Z,21.35
2018-05-16T13:51:29.019Z,21.29
2018-05-16T13:52:55.584Z,21.21
2018-05-16T13:54:23.035Z,21.19
2018-05-16T13:55:51.584Z,21.21
2018-05-16T13:57:18.124Z,21.26
2018-05-16T13:58:45.491Z,21.29
2018-05-16T14:00:12.997Z,21.32
2018-05-16T14:01:40.498Z,21.35
2018-05-16T14:03:07.838Z,21.34
2018-05-16T14:04:36.423Z,21.32
2018-05-16T14:06:03.921Z,21.28
2018-05-16T14:07:30.212Z,21.23
2018-05-16T14:08:57.726Z,21.22
2018-05-16T14:10:25.321Z,21.19
2018-05-16T14:11:52.937Z,21.12
2018-05-16T14:13:20.380Z,21.17
2018-05-16T14:14:47.877Z,21.27
2018-05-16T14:16:15.437Z,21.34
2018-05-16T14:17:42.921Z,21.35
2018-05-16T14:19:10.425Z,21.38
2018-05-16T14:20:38.097Z,21.44
2018-05-16T14:22:05.584Z,21.48
2018-05-16T14:23:33.080Z,21.56
2018-05-16T14:25:00.743Z,21.62
2018-05-16T14:26:28.382Z,21.65
2018-05-16T14:27:55.792Z,21.62
2018-05-16T14:29:23.362Z,21.59
2018-05-16T14:30:51.944Z,21.54
2018-05-16T14:32:19.515Z,21.50
2018-05-16T14:33:45.922Z,21.48
2018-05-16T14:35:13.476Z,21.48
2018-05-16T14:36:41.030Z,21.48
2018-05-16T14:38:09.489Z,21.41
2018-05-16T14:39:36.067Z,21.33
2018-05-16T14:41:03.486Z,21.31
2018-05-16T14:42:30.824Z,21.29
2018-05-16T14:43:59.239Z,21.26
2018-05-16T14:45:25.832Z,21.22
2018-05-16T14:46:53.201Z,21.19
2018-05-16T14:48:23.728Z,21.17
2018-05-16T14:49:49.293Z,21.11
2018-05-16T14:51:15.734Z,21.05
2018-05-16T14:52:43.160Z,20.95
2018-05-16T14:54:10.730Z,20.85
2018-05-16T14:55:38.184Z,20.81
2018-05-16T14:57:05.671Z,20.77
2018-05-16T14:58:34.198Z,20.73
2018-05-16T15:00:00.618Z,20.68
2018-05-16T15:01:27.990Z,20.65
2018-05-16T15:02:55.486Z,20.61
2018-05-16T15:04:23.888Z,20.58
2018-05-16T15:05:51.344Z,20.53
2018-05-16T15:07:17.995Z,20.49
2018-05-16T15:08:45.439Z,20.48
2018-05-16T15:10:12.779Z,20.45
2018-05-16T15:11:40.115Z,20.44
2018-05-16T15:13:07.567Z,20.43
2018-05-16T15:14:34.911Z,20.43
2018-05-16T15:16:02.467Z,20.42
2018-05-16T15:17:29.691Z,20.41
2018-05-16T15:18:57.176Z,20.41
2018-05-16T15:20:24.768Z,20.41
2018-05-16T15:21:52.105Z,20.42
2018-05-16T15:23:19.633Z,20.43
2018-05-16T15:24:47.240Z,20.44
2018-05-16T15:26:14.683Z,20.46
2018-05-16T15:27:42.174Z,20.46
2018-05-16T15:29:10.646Z,20.45
2018-05-16T15:30:38.046Z,20.45
2018-05-16T15:32:04.550Z,20.45
2018-05-16T15:33:31.930Z,20.42
2018-05-16T15:34:59.411Z,20.39
2018-05-16T15:36:27.918Z,20.37
2018-05-16T15:37:54.431Z,20.38
2018-05-16T15:39:21.861Z,20.38
2018-05-16T15:40:50.532Z,20.40
2018-05-16T15:42:17.036Z,20.41
2018-05-16T15:43:44.555Z,20.44
2018-05-16T15:45:11.887Z,20.47
2018-05-16T15:46:40.515Z,20.50
2018-05-16T15:48:06.840Z,20.52
2018-05-16T15:49:34.518Z,20.50
2018-05-16T15:51:02.039Z,20.46
2018-05-16T15:52:29.406Z,20.44
2018-05-16T15:53:56.753Z,20.44
2018-05-16T15:55:24.435Z,20.42
2018-05-16T15:56:51.967Z,20.40
2018-05-16T15:58:19.235Z,20.38
2018-05-16T15:59:46.784Z,20.35
2018-05-16T16:01:15.373Z,20.34
2018-05-16T16:02:41.777Z,20.29
2018-05-16T16:04:10.387Z,20.25
2018-05-16T16:05:37.820Z,20.21
2018-05-16T16:07:04.155Z,20.20
2018-05-16T16:08:31.663Z,20.16
2018-05-16T16:10:00.216Z,20.12
2018-05-16T16:11:26.592Z,20.09
2018-05-16T16:12:53.853Z,20.06
2018-05-16T16:14:21.438Z,20.05
2018-05-16T16:15:49.095Z,20.03
2018-05-16T16:17:16.417Z,20.02
2018-05-16T16:18:43.968Z,20.00
2018-05-16T16:20:12.348Z,20.00
2018-05-16T16:21:38.850Z,19.99
2018-05-16T16:23:06.323Z,19.97
2018-05-16T16:24:33.908Z,19.96
2018-05-16T16:26:01.317Z,19.97
2018-05-16T16:27:28.879Z,19.96
2018-05-16T16:28:56.399Z,19.95
2018-05-16T16:30:24.990Z,19.93
2018-05-16T16:31:52.364Z,19.90
2018-05-16T16:33:18.804Z,19.87
2018-05-16T16:34:46.078Z,19.85
2018-05-16T16:36:13.531Z,19.85
2018-05-16T16:37:42.095Z,19.84
2018-05-16T16:39:08.528Z,19.82
2018-05-16T16:40:35.923Z,19.82
2018-05-16T16:42:04.312Z,19.82
2018-05-16T16:43:31.756Z,19.80
2018-05-16T16:44:58.239Z,19.77
2018-05-16T16:46:25.717Z,19.74
2018-05-16T16:47:54.101Z,19.74
2018-05-16T16:49:20.595Z,19.73
2018-05-16T16:50:48.086Z,19.71
2018-05-16T16:52:15.489Z,19.70
2018-05-16T16:53:42.939Z,19.69
2018-05-16T16:55:10.457Z,19.70
2018-05-16T16:56:37.910Z,19.69
2018-05-16T16:58:05.501Z,19.71
2018-05-16T16:59:34.056Z,19.73
2018-05-16T17:01:00.235Z,19.74
2018-05-16T17:02:27.767Z,19.75
2018-05-16T17:03:54.878Z,19.76
2018-05-16T17:05:22.522Z,19.76
2018-05-16T17:06:51.041Z,19.74
2018-05-16T17:08:17.455Z,19.73
2018-05-16T17:09:45.085Z,19.70
2018-05-16T17:11:12.691Z,19.67
2018-05-16T17:12:41.221Z,19.65
2018-05-16T17:14:07.607Z,19.62
2018-05-16T17:15:36.120Z,19.60
2018-05-16T17:17:02.423Z,19.59
2018-05-16T17:18:30.963Z,19.56
2018-05-16T17:19:58.541Z,19.54
2018-05-16T17:21:24.988Z,19.51
2018-05-16T17:22:52.383Z,19.48
2018-05-16T17:24:21.016Z,19.46
2018-05-16T17:25:47.479Z,19.43
2018-05-16T17:27:18.150Z,19.41
2018-05-16T17:28:42.621Z,19.40
2018-05-16T17:30:11.233Z,19.39
2018-05-16T17:31:37.620Z,19.39
2018-05-16T17:33:04.965Z,19.38
2018-05-16T17:34:33.509Z,19.39
2018-05-16T17:35:59.649Z,19.39
2018-05-16T17:37:27.141Z,19.39
2018-05-16T17:38:54.769Z,19.40
2018-05-16T17:40:22.320Z,19.42
2018-05-16T17:41:49.811Z,19.44
2018-05-16T17:43:17.303Z,19.46
2018-05-16T17:44:44.802Z,19.47
2018-05-16T17:46:12.535Z,19.49
2018-05-16T17:47:40.926Z,19.50
2018-05-16T17:49:08.372Z,19.51
2018-05-16T17:50:34.842Z,19.52
2018-05-16T17:52:02.142Z,19.52
2018-05-16T17:53:29.633Z,19.53
2018-05-16T17:54:57.036Z,19.53
2018-05-16T17:56:25.571Z,19.51
2018-05-16T17:57:52.002Z,19.51
2018-05-16T17:59:19.283Z,19.51
2018-05-16T18:00:46.792Z,19.51
2018-05-16T18:02:14.348Z,19.49
2018-05-16T18:03:41.690Z,19.49
2018-05-16T18:05:09.013Z,19.48
2018-05-16T18:06:36.744Z,19.47
2018-05-16T18:08:04.090Z,19.44
2018-05-16T18:09:31.598Z,19.42
2018-05-16T18:10:58.962Z,19.40
2018-05-16T18:12:26.491Z,19.38
2018-05-16T18:13:54.954Z,19.37
2018-05-16T18:15:22.425Z,19.37
2018-05-16T18:16:48.706Z,19.35
2018-05-16T18:18:16.060Z,19.36
2018-05-16T18:19:44.680Z,19.35
2018-05-16T18:21:10.999Z,19.35
2018-05-16T18:22:38.418Z,19.34
2018-05-16T18:24:07.028Z,19.33
2018-05-16T18:25:33.237Z,19.31
2018-05-16T18:27:01.505Z,19.29
2018-05-16T18:28:29.092Z,19.27
2018-05-16T18:29:56.629Z,19.26
2018-05-16T18:31:24.248Z,19.23
2018-05-16T18:32:50.423Z,19.21
2018-05-16T18:34:17.850Z,19.18
2018-05-16T18:35:45.382Z,19.16
2018-05-16T18:37:13.948Z,19.15
2018-05-16T18:38:40.325Z,19.14
2018-05-16T18:40:07.607Z,19.13
2018-05-16T18:41:34.930Z,19.12
2018-05-16T18:43:02.425Z,19.09
2018-05-16T18:44:30.410Z,19.07
2018-05-16T18:45:56.847Z,19.04